Port Alsworth, AK

5:24 AM AKST on December 07, 2016 (GMT -0900)
Iliamna | | Change Station

Elev 161 ft 59.75 °N, 154.91 °W | Updated 31 minutes ago

Overcast
Overcast
5 °F
Feels Like -15 °F
N
18
Wind Variable Wind from North
Gusts 25 mph

Today
High -- | Low -- °F
--% Chance of Precip.
Yesterday
High -- | Low -- °F
Precip. -- in
Pressure 30.17 in
Visibility 10.0 miles
Clouds Overcast 1600 ft
Windchill -15 °F
Dew Point 1 °F
Humidity 84%
Rainfall 0.00 in
Snow Depth Not available.
10:06 AM 4:11 PM
First Quarter, 53% visible
METAR PAIL 071353Z AUTO 01016G22KT 10SM OVC016 M15/M17 A3015 RMK AO2 SLP216 T11501172 TSNO
Pressure 30.17 in
Visibility 10.0 miles
Clouds Overcast 1600 ft
Windchill -15 °F
Dew Point 1 °F
Humidity 84%
Rainfall 0.00 in
Snow Depth Not available.
10:06 AM 4:11 PM
First Quarter, 53% visible
METAR PAIL 071353Z AUTO 01016G22KT 10SM OVC016 M15/M17 A3015 RMK AO2 SLP216 T11501172 TSNO

10-Day Weather Forecast

Almanac

Astronomy

Dec. 07, 2016 Rise Set
Actual Time
Civil Twilight
Nautical Twilight
Astronomical Twilight
Moon
Length of Visible Light
Length of Day
Tomorrow will be .
, % of the Moon is Illuminated

Today's Extremes

State Highs State Lows

Community

WunderPhotos

Upload Photos

1,956,116 photos uploaded!

WunderBlog® & News

Nearby

Air Quality

  Air Quality AQ Index Pollutant
Not available.

Snow Depth

Station Depth Elevation

Earthquake Activity

City Distance Mag. Time & Date
Minimum magnitude displayed is 2.5.

Coastal Water Temperatures

Place Temperature

Stations

Nearby Weather Stations

Station Location Temp. Windchill Dew Point Humidity Wind Precip. Elev Updated Type
                   

Watches & Warnings

There are currently no watches in effect.